createdAt,value
2022-09-18T00:01:36.668Z,5.43
2022-09-18T00:04:07.396Z,8.67
2022-09-18T00:06:38.626Z,6.07
2022-09-18T00:09:09.937Z,6.60
2022-09-18T00:11:40.056Z,5.67
2022-09-18T00:14:10.585Z,7.07
2022-09-18T00:16:39.142Z,5.03
2022-09-18T00:19:07.788Z,6.00
2022-09-18T00:21:37.544Z,7.23
2022-09-18T00:24:06.716Z,6.53
2022-09-18T00:26:35.476Z,5.47
2022-09-18T00:29:03.495Z,5.53
2022-09-18T00:31:33.824Z,6.13
2022-09-18T00:34:05.665Z,5.97
2022-09-18T00:36:33.636Z,5.30
2022-09-18T00:39:03.672Z,8.27
2022-09-18T00:41:34.288Z,4.67
2022-09-18T00:44:31.903Z,5.30
2022-09-18T00:47:04.459Z,4.97
2022-09-18T00:49:33.070Z,5.80
2022-09-18T00:52:02.214Z,7.57
2022-09-18T00:54:35.529Z,5.23
2022-09-18T00:57:06.405Z,5.50
2022-09-18T00:59:38.744Z,7.00
2022-09-18T01:02:06.772Z,5.73
2022-09-18T01:04:34.812Z,5.73
2022-09-18T01:07:09.037Z,7.00
2022-09-18T01:09:48.283Z,6.17
2022-09-18T01:12:23.784Z,7.40
2022-09-18T01:15:01.785Z,7.20
2022-09-18T01:17:37.896Z,7.13
2022-09-18T01:20:31.714Z,8.00
2022-09-18T01:23:28.648Z,6.07
2022-09-18T01:26:14.882Z,5.47
2022-09-18T01:28:48.838Z,4.93
2022-09-18T01:31:21.152Z,5.07
2022-09-18T01:33:53.714Z,3.83
2022-09-18T01:36:24.690Z,4.40
2022-09-18T01:38:56.573Z,4.00
2022-09-18T01:41:26.256Z,3.80
2022-09-18T01:44:02.850Z,4.30
2022-09-18T01:46:31.903Z,4.23
2022-09-18T01:49:05.526Z,7.63
2022-09-18T01:51:40.757Z,5.77
2022-09-18T01:54:13.925Z,5.87
2022-09-18T01:56:46.562Z,2.67
2022-09-18T01:59:20.509Z,5.60
2022-09-18T02:01:52.272Z,6.50
2022-09-18T02:04:26.675Z,4.67
2022-09-18T02:07:01.942Z,4.37
2022-09-18T02:09:31.050Z,4.73
2022-09-18T02:12:03.016Z,6.63
2022-09-18T02:14:35.491Z,2.93
2022-09-18T02:17:09.718Z,3.97
2022-09-18T02:19:44.379Z,5.40
2022-09-18T02:22:16.159Z,5.73
2022-09-18T02:24:46.452Z,4.80
2022-09-18T02:27:16.093Z,4.63
2022-09-18T02:29:47.752Z,5.63
2022-09-18T02:32:16.225Z,6.47
2022-09-18T02:34:44.333Z,3.73
2022-09-18T02:37:26.060Z,4.33
2022-09-18T02:40:07.384Z,4.17
2022-09-18T02:42:43.158Z,6.53
2022-09-18T02:45:20.578Z,4.63
2022-09-18T02:48:06.342Z,6.63
2022-09-18T02:50:41.635Z,3.50
2022-09-18T02:53:14.123Z,4.80
2022-09-18T02:55:47.265Z,3.33
2022-09-18T02:58:21.858Z,4.97
2022-09-18T03:00:52.728Z,5.17
2022-09-18T03:03:20.694Z,7.53
2022-09-18T03:05:48.668Z,4.97
2022-09-18T03:08:16.690Z,5.33
2022-09-18T03:10:44.716Z,7.23
2022-09-18T03:13:12.702Z,6.27
2022-09-18T03:15:40.816Z,4.40
2022-09-18T03:18:10.463Z,4.93
2022-09-18T03:20:40.313Z,5.33
2022-09-18T03:23:08.318Z,5.37
2022-09-18T03:25:36.439Z,6.10
2022-09-18T03:28:05.392Z,4.93
2022-09-18T03:30:33.453Z,7.20
2022-09-18T03:33:01.511Z,6.17
2022-09-18T03:35:32.193Z,7.20
2022-09-18T03:38:00.161Z,7.93
2022-09-18T03:40:29.314Z,10.67
2022-09-18T03:42:57.378Z,7.07
2022-09-18T03:45:25.349Z,7.30
2022-09-18T03:47:53.605Z,8.17
2022-09-18T03:50:21.581Z,7.47
2022-09-18T03:52:51.668Z,8.03
2022-09-18T03:55:19.854Z,8.20
2022-09-18T03:57:48.060Z,8.37
2022-09-18T04:00:16.503Z,11.83
2022-09-18T04:02:45.115Z,9.50
2022-09-18T04:05:13.327Z,9.33
2022-09-18T04:07:41.328Z,6.63
2022-09-18T04:10:11.097Z,9.27
2022-09-18T04:12:39.205Z,10.23
2022-09-18T04:15:08.266Z,9.43
2022-09-18T04:17:36.271Z,7.50
2022-09-18T04:20:04.807Z,9.37
2022-09-18T04:22:32.826Z,7.23
2022-09-18T04:25:00.784Z,8.20
2022-09-18T04:27:30.173Z,6.73
2022-09-18T04:29:58.215Z,5.90
2022-09-18T04:32:26.320Z,6.97
2022-09-18T04:34:54.314Z,8.00
2022-09-18T04:37:22.264Z,8.13
2022-09-18T04:39:50.235Z,9.10
2022-09-18T04:42:18.207Z,6.60
2022-09-18T04:44:47.535Z,11.43
2022-09-18T04:47:15.524Z,8.63
2022-09-18T04:49:43.554Z,13.53
2022-09-18T04:52:11.693Z,13.50
2022-09-18T04:54:39.761Z,10.00
2022-09-18T04:57:07.798Z,10.17
2022-09-18T04:59:35.929Z,10.03
2022-09-18T05:02:05.460Z,9.37
2022-09-18T05:04:33.443Z,7.53
2022-09-18T05:07:01.536Z,8.97
2022-09-18T05:09:29.534Z,8.17
2022-09-18T05:11:57.534Z,7.93
2022-09-18T05:14:25.620Z,7.87
2022-09-18T05:16:53.827Z,7.10
2022-09-18T05:19:23.473Z,8.03
2022-09-18T05:21:51.527Z,6.67
2022-09-18T05:24:19.801Z,7.30
2022-09-18T05:26:48.528Z,7.07
2022-09-18T05:29:16.527Z,6.67
2022-09-18T05:31:44.650Z,6.40
2022-09-18T05:34:12.656Z,6.57
2022-09-18T05:36:41.993Z,7.03
2022-09-18T05:39:13.102Z,8.03
2022-09-18T05:41:43.559Z,8.87
2022-09-18T05:44:11.569Z,7.77
2022-09-18T05:46:39.627Z,7.33
2022-09-18T05:49:07.633Z,7.50
2022-09-18T05:51:35.599Z,7.70
2022-09-18T05:54:05.366Z,6.23
2022-09-18T05:56:33.355Z,9.23
2022-09-18T05:59:01.346Z,8.13
2022-09-18T06:01:30.917Z,8.33
2022-09-18T06:03:59.945Z,8.50
2022-09-18T06:06:29.158Z,7.77
2022-09-18T06:08:57.230Z,7.30
2022-09-18T06:11:26.789Z,6.57
2022-09-18T06:13:54.748Z,6.70
2022-09-18T06:16:22.816Z,6.40
2022-09-18T06:18:50.840Z,6.10
2022-09-18T06:21:18.840Z,5.87
2022-09-18T06:23:46.819Z,6.53
2022-09-18T06:26:15.869Z,8.80
2022-09-18T06:28:45.213Z,8.80
2022-09-18T06:31:13.223Z,5.27
2022-09-18T06:33:41.252Z,8.97
2022-09-18T06:36:13.900Z,4.70
2022-09-18T06:38:42.081Z,5.53
2022-09-18T06:41:10.125Z,6.43
2022-09-18T06:43:38.098Z,5.67
2022-09-18T06:46:07.940Z,4.73
2022-09-18T06:48:35.904Z,5.03
2022-09-18T06:51:03.925Z,4.53
2022-09-18T06:53:32.006Z,3.97
2022-09-18T06:56:01.964Z,5.17
2022-09-18T06:58:30.007Z,4.03
2022-09-18T07:01:00.970Z,3.87
2022-09-18T07:03:30.432Z,3.40
2022-09-18T07:05:58.462Z,4.10
2022-09-18T07:08:26.460Z,4.87
2022-09-18T07:10:54.434Z,3.30
2022-09-18T07:13:22.459Z,4.53
2022-09-18T07:15:50.500Z,7.67
2022-09-18T07:18:18.587Z,3.67
2022-09-18T07:20:47.977Z,3.90
2022-09-18T07:23:16.109Z,3.10
2022-09-18T07:25:44.411Z,4.93
2022-09-18T07:28:12.828Z,3.77
2022-09-18T07:30:41.665Z,2.93
2022-09-18T07:33:10.634Z,2.70
2022-09-18T07:35:38.606Z,3.17
2022-09-18T07:38:09.124Z,3.40
2022-09-18T07:40:37.787Z,3.07
2022-09-18T07:43:08.079Z,3.63
2022-09-18T07:45:36.677Z,2.47
2022-09-18T07:48:06.334Z,3.23
2022-09-18T07:50:34.877Z,2.30
2022-09-18T07:53:05.360Z,2.37
2022-09-18T07:55:37.169Z,2.80
2022-09-18T07:58:07.103Z,2.80
2022-09-18T08:00:39.478Z,2.53
2022-09-18T08:03:09.814Z,3.37
2022-09-18T08:05:37.848Z,3.00
2022-09-18T08:08:06.246Z,2.67
2022-09-18T08:10:37.054Z,2.87
2022-09-18T08:13:05.268Z,2.07
2022-09-18T08:15:37.211Z,4.43
2022-09-18T08:18:06.112Z,3.43
2022-09-18T08:20:34.240Z,5.67
2022-09-18T08:23:04.754Z,1.90
2022-09-18T08:25:32.810Z,4.37
2022-09-18T08:28:03.360Z,2.90
2022-09-18T08:30:32.259Z,3.70
2022-09-18T08:33:01.637Z,2.20
2022-09-18T08:35:30.356Z,3.00
2022-09-18T08:37:58.453Z,2.87
2022-09-18T08:40:47.179Z,2.17
2022-09-18T08:43:39.317Z,2.57
2022-09-18T08:46:12.051Z,1.70
2022-09-18T08:48:45.726Z,1.53
2022-09-18T08:51:21.084Z,1.40
2022-09-18T08:53:52.814Z,1.50
2022-09-18T08:56:24.509Z,1.83
2022-09-18T08:58:57.681Z,3.37
2022-09-18T09:01:32.783Z,2.07
2022-09-18T09:04:06.820Z,1.53
2022-09-18T09:06:52.851Z,1.13
2022-09-18T09:09:43.441Z,3.30
2022-09-18T09:12:18.791Z,1.87
2022-09-18T09:15:11.627Z,1.90
2022-09-18T09:17:41.703Z,1.27
2022-09-18T09:20:21.882Z,1.40
2022-09-18T09:22:59.712Z,1.73
2022-09-18T09:25:38.250Z,1.00
2022-09-18T09:28:16.684Z,1.30
2022-09-18T09:30:50.074Z,1.30
2022-09-18T09:33:25.017Z,1.83
2022-09-18T09:35:56.370Z,1.70
2022-09-18T09:38:42.149Z,1.97
2022-09-18T09:41:26.393Z,1.37
2022-09-18T09:44:04.952Z,3.40
2022-09-18T09:46:53.109Z,1.27
2022-09-18T09:49:26.238Z,1.00
2022-09-18T09:52:04.602Z,1.97
2022-09-18T09:54:36.322Z,1.47
2022-09-18T09:57:13.404Z,1.20
2022-09-18T09:59:48.641Z,2.00
2022-09-18T10:02:33.747Z,1.17
2022-09-18T10:05:17.630Z,1.00
2022-09-18T10:07:51.665Z,0.93
2022-09-18T10:10:29.066Z,1.50
2022-09-18T10:13:01.437Z,0.90
2022-09-18T10:15:37.594Z,3.87
2022-09-18T10:18:15.719Z,2.50
2022-09-18T10:20:45.898Z,1.90
2022-09-18T10:23:18.269Z,1.10
2022-09-18T10:25:51.214Z,3.63
2022-09-18T10:28:19.334Z,1.87
2022-09-18T10:30:55.776Z,1.23
2022-09-18T10:33:38.427Z,1.33
2022-09-18T10:36:25.999Z,0.83
2022-09-18T10:38:54.015Z,1.03
2022-09-18T10:41:31.676Z,0.83
2022-09-18T10:44:05.646Z,1.20
2022-09-18T10:46:36.051Z,1.30
2022-09-18T10:49:20.898Z,1.00
2022-09-18T10:51:48.925Z,1.13
2022-09-18T10:54:19.500Z,1.03
2022-09-18T10:56:47.520Z,1.00
2022-09-18T10:59:34.810Z,0.87
2022-09-18T11:02:05.994Z,0.73
2022-09-18T11:04:36.838Z,0.93
2022-09-18T11:07:07.564Z,1.33
2022-09-18T11:09:39.132Z,1.07
2022-09-18T11:12:16.565Z,0.90
2022-09-18T11:14:47.432Z,1.10
2022-09-18T11:17:25.521Z,1.20
2022-09-18T11:19:57.608Z,0.90
2022-09-18T11:22:41.298Z,1.57
2022-09-18T11:25:21.829Z,1.00
2022-09-18T11:27:53.531Z,1.23
2022-09-18T11:30:24.072Z,1.40
2022-09-18T11:32:58.313Z,1.50
2022-09-18T11:35:30.154Z,1.57
2022-09-18T11:38:01.200Z,1.37
2022-09-18T11:40:32.519Z,1.60
2022-09-18T11:43:05.457Z,0.97
2022-09-18T11:45:44.832Z,0.80
2022-09-18T11:48:25.154Z,0.60
2022-09-18T11:50:58.063Z,1.33
2022-09-18T11:53:28.827Z,1.20
2022-09-18T11:56:03.156Z,1.03
2022-09-18T11:58:35.973Z,0.90
2022-09-18T12:01:14.291Z,0.63
2022-09-18T12:03:47.414Z,0.90
2022-09-18T12:06:24.767Z,0.80
2022-09-18T12:08:56.261Z,1.17
2022-09-18T12:11:32.160Z,0.90
2022-09-18T12:14:10.233Z,0.70
2022-09-18T12:16:46.155Z,1.10
2022-09-18T12:19:19.883Z,1.23
2022-09-18T12:21:55.887Z,1.87
2022-09-18T12:24:24.132Z,1.00
2022-09-18T12:27:07.144Z,1.10
2022-09-18T12:29:46.865Z,2.00
2022-09-18T12:32:32.149Z,1.33
2022-09-18T12:35:08.557Z,1.20
2022-09-18T12:38:03.509Z,0.90
2022-09-18T12:40:38.493Z,1.20
2022-09-18T12:43:27.369Z,1.20
2022-09-18T12:46:17.241Z,1.07
2022-09-18T12:49:03.326Z,1.47
2022-09-18T12:51:42.197Z,1.53
2022-09-18T12:54:45.742Z,1.30
2022-09-18T12:57:28.368Z,1.90
2022-09-18T13:00:01.903Z,1.10
2022-09-18T13:02:53.226Z,2.17
2022-09-18T13:05:27.828Z,0.90
2022-09-18T13:08:00.772Z,0.70
2022-09-18T13:10:33.413Z,1.10
2022-09-18T13:13:10.876Z,0.80
2022-09-18T13:15:44.509Z,0.90
2022-09-18T13:18:24.093Z,1.07
2022-09-18T13:20:53.505Z,0.57
2022-09-18T13:23:24.745Z,0.57
2022-09-18T13:25:54.042Z,1.10
2022-09-18T13:28:24.764Z,1.37
2022-09-18T13:31:31.146Z,0.80
2022-09-18T13:34:01.712Z,0.67
2022-09-18T13:36:36.732Z,0.70
2022-09-18T13:39:08.314Z,1.07
2022-09-18T13:41:45.442Z,1.87
2022-09-18T13:44:21.229Z,0.90
2022-09-18T13:46:51.332Z,1.03
2022-09-18T13:49:22.859Z,0.80
2022-09-18T13:51:50.874Z,1.50
2022-09-18T13:54:30.055Z,2.47
2022-09-18T13:57:31.677Z,1.23
2022-09-18T14:00:05.976Z,0.90
2022-09-18T14:02:36.750Z,1.23
2022-09-18T14:05:30.629Z,1.10
2022-09-18T14:08:31.158Z,1.30
2022-09-18T14:11:16.101Z,1.50
2022-09-18T14:13:53.909Z,1.00
2022-09-18T14:16:34.355Z,0.83
2022-09-18T14:19:05.812Z,1.07
2022-09-18T14:21:40.206Z,1.77
2022-09-18T14:24:55.095Z,1.00
2022-09-18T14:27:38.740Z,2.07
2022-09-18T14:30:21.848Z,1.40
2022-09-18T14:33:07.202Z,1.50
2022-09-18T14:35:41.925Z,1.57
2022-09-18T14:38:27.456Z,1.37
2022-09-18T14:41:00.225Z,1.27
2022-09-18T14:43:28.583Z,1.50
2022-09-18T14:45:57.092Z,1.50
2022-09-18T14:48:32.183Z,3.77
2022-09-18T14:51:21.396Z,2.20
2022-09-18T14:53:51.955Z,1.90
2022-09-18T14:56:25.009Z,1.97
2022-09-18T14:58:53.726Z,4.27
2022-09-18T15:01:25.335Z,2.57
2022-09-18T15:03:56.423Z,1.43
2022-09-18T15:06:28.586Z,1.97
2022-09-18T15:08:58.146Z,1.73
2022-09-18T15:11:37.744Z,3.23
2022-09-18T15:14:24.315Z,5.27
2022-09-18T15:16:56.390Z,3.17
2022-09-18T15:19:26.246Z,4.47
2022-09-18T15:21:54.682Z,3.13
2022-09-18T15:24:22.774Z,4.63
2022-09-18T15:26:56.113Z,4.50
2022-09-18T15:29:29.132Z,3.40
2022-09-18T15:31:57.954Z,3.83
2022-09-18T15:34:29.945Z,3.00
2022-09-18T15:37:01.688Z,6.53
2022-09-18T15:39:32.367Z,6.00
2022-09-18T15:42:18.820Z,3.03
2022-09-18T15:45:19.420Z,8.23
2022-09-18T15:47:47.759Z,4.73
2022-09-18T15:50:42.375Z,4.77
2022-09-18T15:53:29.414Z,7.20
2022-09-18T15:56:00.922Z,4.53
2022-09-18T15:58:43.338Z,4.17
2022-09-18T16:01:35.274Z,6.63
2022-09-18T16:04:08.937Z,7.30
2022-09-18T16:06:49.135Z,5.90
2022-09-18T16:09:33.680Z,5.53
2022-09-18T16:12:02.303Z,7.37
2022-09-18T16:14:50.101Z,5.57
2022-09-18T16:17:57.943Z,5.40
2022-09-18T16:20:35.064Z,5.43
2022-09-18T16:23:25.893Z,7.20
2022-09-18T16:26:07.009Z,7.03
2022-09-18T16:28:37.619Z,6.00
2022-09-18T16:31:06.027Z,6.50
2022-09-18T16:33:35.143Z,5.23
2022-09-18T16:36:05.232Z,6.93
2022-09-18T16:38:35.552Z,7.33
2022-09-18T16:41:03.592Z,7.80
2022-09-18T16:43:31.620Z,4.67
2022-09-18T16:45:59.625Z,6.87
2022-09-18T16:48:27.730Z,5.67
2022-09-18T16:50:55.821Z,7.30
2022-09-18T16:53:23.862Z,6.03
2022-09-18T16:55:57.032Z,7.13
2022-09-18T16:58:27.233Z,5.23
2022-09-18T17:00:55.229Z,6.37
2022-09-18T17:03:23.375Z,6.90
2022-09-18T17:05:51.353Z,6.40
2022-09-18T17:08:19.523Z,6.27
2022-09-18T17:10:47.589Z,5.67
2022-09-18T17:13:19.930Z,5.63
2022-09-18T17:15:48.512Z,5.47
2022-09-18T17:18:16.611Z,5.27
2022-09-18T17:20:45.870Z,5.17
2022-09-18T17:23:14.146Z,4.93
2022-09-18T17:25:42.605Z,7.60
2022-09-18T17:28:12.631Z,8.07
2022-09-18T17:30:44.917Z,6.20
2022-09-18T17:33:12.921Z,5.30
2022-09-18T17:35:40.951Z,6.47
2022-09-18T17:38:08.960Z,7.43
2022-09-18T17:40:37.082Z,7.40
2022-09-18T17:43:05.561Z,5.63
2022-09-18T17:45:34.091Z,7.13
2022-09-18T17:48:03.808Z,7.63
2022-09-18T17:50:32.051Z,6.27
2022-09-18T17:53:00.498Z,5.57
2022-09-18T17:55:28.511Z,6.30
2022-09-18T17:57:56.497Z,8.70
2022-09-18T18:00:25.425Z,6.27
2022-09-18T18:02:53.395Z,6.77
2022-09-18T18:05:23.684Z,5.50
2022-09-18T18:07:51.661Z,5.07
2022-09-18T18:10:20.012Z,4.53
2022-09-18T18:12:48.012Z,5.07
2022-09-18T18:15:18.074Z,5.80
2022-09-18T18:17:46.871Z,7.10
2022-09-18T18:20:15.023Z,5.10
2022-09-18T18:22:44.474Z,6.80
2022-09-18T18:25:13.034Z,8.83
2022-09-18T18:27:41.111Z,7.77
2022-09-18T18:30:10.448Z,6.37
2022-09-18T18:32:43.026Z,9.60
2022-09-18T18:35:11.542Z,8.50
2022-09-18T18:37:39.557Z,7.63
2022-09-18T18:40:09.876Z,6.67
2022-09-18T18:42:40.599Z,6.73
2022-09-18T18:45:10.266Z,8.87
2022-09-18T18:47:38.636Z,10.03
2022-09-18T18:50:13.060Z,10.07
2022-09-18T18:52:42.471Z,9.07
2022-09-18T18:55:12.326Z,9.13
2022-09-18T18:57:40.588Z,9.77
2022-09-18T19:00:10.126Z,12.33
2022-09-18T19:02:38.399Z,9.60
2022-09-18T19:05:09.219Z,8.63
2022-09-18T19:07:37.236Z,9.30
2022-09-18T19:10:07.687Z,9.03
2022-09-18T19:12:37.120Z,6.97
2022-09-18T19:15:05.825Z,10.37
2022-09-18T19:17:34.214Z,7.60
2022-09-18T19:20:03.667Z,7.20
2022-09-18T19:22:32.420Z,10.73
2022-09-18T19:25:01.258Z,8.57
2022-09-18T19:27:29.834Z,7.47
2022-09-18T19:29:59.273Z,9.07
2022-09-18T19:32:27.325Z,8.43
2022-09-18T19:34:58.003Z,8.63
2022-09-18T19:37:25.979Z,8.10
2022-09-18T19:39:54.400Z,7.43
2022-09-18T19:42:27.932Z,9.77
2022-09-18T19:45:03.174Z,9.03
2022-09-18T19:47:35.564Z,9.30
2022-09-18T19:50:05.355Z,9.70
2022-09-18T19:52:33.454Z,8.70
2022-09-18T19:55:01.428Z,7.60
2022-09-18T19:57:30.541Z,9.63
2022-09-18T19:59:59.596Z,10.63
2022-09-18T20:02:30.255Z,9.60
2022-09-18T20:04:58.455Z,9.43
2022-09-18T20:07:26.573Z,8.60
2022-09-18T20:09:54.644Z,11.00
2022-09-18T20:12:22.653Z,8.80
2022-09-18T20:14:50.763Z,8.47
2022-09-18T20:17:18.750Z,10.97
2022-09-18T20:19:48.139Z,10.70
2022-09-18T20:22:16.189Z,9.60
2022-09-18T20:24:44.247Z,8.63
2022-09-18T20:27:12.698Z,6.47
2022-09-18T20:29:41.177Z,8.17
2022-09-18T20:32:09.742Z,7.87
2022-09-18T20:34:42.884Z,7.23
2022-09-18T20:37:15.349Z,7.80
2022-09-18T20:39:43.351Z,8.67
2022-09-18T20:42:11.347Z,7.70
2022-09-18T20:44:39.346Z,8.10
2022-09-18T20:47:07.488Z,7.57
2022-09-18T20:49:36.686Z,7.27
2022-09-18T20:52:04.756Z,7.77
2022-09-18T20:54:34.144Z,9.17
2022-09-18T20:57:02.140Z,7.33
2022-09-18T20:59:31.462Z,8.47
2022-09-18T21:01:59.475Z,8.90
2022-09-18T21:04:29.020Z,9.43
2022-09-18T21:06:59.699Z,9.53
2022-09-18T21:09:30.746Z,8.20
2022-09-18T21:12:00.099Z,10.13
2022-09-18T21:14:29.077Z,11.70
2022-09-18T21:16:57.321Z,9.90
2022-09-18T21:19:26.117Z,9.30
2022-09-18T21:21:54.479Z,10.23
2022-09-18T21:24:22.567Z,9.33
2022-09-18T21:26:53.779Z,9.63
2022-09-18T21:29:25.567Z,11.90
2022-09-18T21:31:55.300Z,13.27
2022-09-18T21:34:26.586Z,11.23
2022-09-18T21:37:01.551Z,10.17
2022-09-18T21:39:30.583Z,10.37
2022-09-18T21:42:00.532Z,11.83
2022-09-18T21:44:31.890Z,11.43
2022-09-18T21:47:02.634Z,11.53
2022-09-18T21:49:31.937Z,12.30
2022-09-18T21:52:02.560Z,13.87
2022-09-18T21:54:31.836Z,10.93
2022-09-18T21:57:00.588Z,11.80
2022-09-18T21:59:31.779Z,11.20
2022-09-18T22:02:03.166Z,11.40
2022-09-18T22:04:34.081Z,13.50
2022-09-18T22:07:03.325Z,10.60
2022-09-18T22:09:34.545Z,9.63
2022-09-18T22:12:03.223Z,10.27
2022-09-18T22:14:34.002Z,9.77
2022-09-18T22:17:04.041Z,9.97
2022-09-18T22:19:33.139Z,13.93
2022-09-18T22:22:01.761Z,11.80
2022-09-18T22:24:30.734Z,11.23
2022-09-18T22:27:00.687Z,13.20
2022-09-18T22:29:30.595Z,10.93
2022-09-18T22:32:00.373Z,13.70
2022-09-18T22:34:30.527Z,10.60
2022-09-18T22:37:00.220Z,13.97
2022-09-18T22:39:28.848Z,13.03
2022-09-18T22:41:57.130Z,10.70
2022-09-18T22:44:25.459Z,11.70
2022-09-18T22:46:54.413Z,10.93
2022-09-18T22:49:24.532Z,11.63
2022-09-18T22:51:53.053Z,12.43
2022-09-18T22:54:24.724Z,10.67
2022-09-18T22:56:53.570Z,10.13
2022-09-18T22:59:22.716Z,9.47
2022-09-18T23:01:52.805Z,9.37
2022-09-18T23:04:25.369Z,10.00
2022-09-18T23:06:53.644Z,8.67
2022-09-18T23:09:22.006Z,13.53
2022-09-18T23:11:52.882Z,9.87
2022-09-18T23:14:23.688Z,11.50
2022-09-18T23:16:51.821Z,9.93
2022-09-18T23:19:22.465Z,10.73
2022-09-18T23:21:51.916Z,9.97
2022-09-18T23:24:20.242Z,10.47
2022-09-18T23:26:49.936Z,9.07
2022-09-18T23:29:20.863Z,10.33
2022-09-18T23:31:52.860Z,9.00
2022-09-18T23:34:23.459Z,9.90
2022-09-18T23:36:56.117Z,10.57
2022-09-18T23:39:26.855Z,7.50
2022-09-18T23:41:55.102Z,7.73
2022-09-18T23:44:24.221Z,8.57
2022-09-18T23:46:52.721Z,8.63
2022-09-18T23:49:23.385Z,8.13
2022-09-18T23:51:54.290Z,7.67
2022-09-18T23:54:24.253Z,8.47
2022-09-18T23:56:53.020Z,8.13
2022-09-18T23:59:23.214Z,7.53
